sensor_id;sensor_type;location;lat;lon;timestamp;P1;durP1;ratioP1;P2;durP2;ratioP2
25207;SDS011;13153;52.316;21.166;2023-04-03T00:00:23;7.28;;;2.38;;
25207;SDS011;13153;52.316;21.166;2023-04-03T00:02:49;3.80;;;2.03;;
25207;SDS011;13153;52.316;21.166;2023-04-03T00:05:14;5.93;;;2.30;;
25207;SDS011;13153;52.316;21.166;2023-04-03T00:07:40;5.82;;;2.15;;
25207;SDS011;13153;52.316;21.166;2023-04-03T00:10:06;4.57;;;1.98;;
25207;SDS011;13153;52.316;21.166;2023-04-03T00:12:33;4.82;;;2.45;;
25207;SDS011;13153;52.316;21.166;2023-04-03T00:14:59;3.75;;;2.20;;
25207;SDS011;13153;52.316;21.166;2023-04-03T00:17:25;6.60;;;2.63;;
25207;SDS011;13153;52.316;21.166;2023-04-03T00:19:50;6.88;;;2.55;;
25207;SDS011;13153;52.316;21.166;2023-04-03T00:22:16;5.80;;;2.30;;
25207;SDS011;13153;52.316;21.166;2023-04-03T00:24:42;7.07;;;2.10;;
25207;SDS011;13153;52.316;21.166;2023-04-03T00:27:08;3.90;;;1.92;;
25207;SDS011;13153;52.316;21.166;2023-04-03T00:29:34;8.18;;;2.63;;
25207;SDS011;13153;52.316;21.166;2023-04-03T00:31:59;5.10;;;2.53;;
25207;SDS011;13153;52.316;21.166;2023-04-03T00:34:25;6.50;;;2.10;;
25207;SDS011;13153;52.316;21.166;2023-04-03T00:36:51;6.10;;;2.20;;
25207;SDS011;13153;52.316;21.166;2023-04-03T00:39:17;8.88;;;2.30;;
25207;SDS011;13153;52.316;21.166;2023-04-03T00:41:43;4.18;;;1.98;;
25207;SDS011;13153;52.316;21.166;2023-04-03T00:44:21;3.45;;;1.90;;
25207;SDS011;13153;52.316;21.166;2023-04-03T00:46:53;4.35;;;1.92;;
25207;SDS011;13153;52.316;21.166;2023-04-03T00:49:19;4.70;;;2.00;;
25207;SDS011;13153;52.316;21.166;2023-04-03T00:51:45;4.68;;;2.10;;
25207;SDS011;13153;52.316;21.166;2023-04-03T00:54:11;5.38;;;2.20;;
25207;SDS011;13153;52.316;21.166;2023-04-03T00:56:38;4.55;;;2.40;;
25207;SDS011;13153;52.316;21.166;2023-04-03T00:59:06;6.55;;;2.38;;
25207;SDS011;13153;52.316;21.166;2023-04-03T01:01:39;4.30;;;1.90;;
25207;SDS011;13153;52.316;21.166;2023-04-03T01:04:24;3.75;;;1.92;;
25207;SDS011;13153;52.316;21.166;2023-04-03T01:06:59;5.90;;;1.92;;
25207;SDS011;13153;52.316;21.166;2023-04-03T01:09:31;5.57;;;1.83;;
25207;SDS011;13153;52.316;21.166;2023-04-03T01:12:16;5.85;;;2.10;;
25207;SDS011;13153;52.316;21.166;2023-04-03T01:14:50;3.85;;;1.98;;
25207;SDS011;13153;52.316;21.166;2023-04-03T01:22:48;3.63;;;1.77;;
25207;SDS011;13153;52.316;21.166;2023-04-03T01:25:30;6.07;;;2.00;;
25207;SDS011;13153;52.316;21.166;2023-04-03T01:27:57;3.97;;;1.92;;
25207;SDS011;13153;52.316;21.166;2023-04-03T01:30:25;5.22;;;1.90;;
25207;SDS011;13153;52.316;21.166;2023-04-03T01:32:56;3.92;;;1.77;;
25207;SDS011;13153;52.316;21.166;2023-04-03T01:35:22;4.50;;;1.90;;
25207;SDS011;13153;52.316;21.166;2023-04-03T01:37:48;8.05;;;2.22;;
25207;SDS011;13153;52.316;21.166;2023-04-03T01:40:14;5.35;;;2.20;;
25207;SDS011;13153;52.316;21.166;2023-04-03T01:42:40;3.95;;;1.90;;
25207;SDS011;13153;52.316;21.166;2023-04-03T01:45:06;6.32;;;1.65;;
25207;SDS011;13153;52.316;21.166;2023-04-03T01:47:32;3.10;;;1.77;;
25207;SDS011;13153;52.316;21.166;2023-04-03T01:49:58;4.60;;;1.92;;
25207;SDS011;13153;52.316;21.166;2023-04-03T01:52:24;4.35;;;1.80;;
25207;SDS011;13153;52.316;21.166;2023-04-03T01:54:50;4.47;;;2.20;;
25207;SDS011;13153;52.316;21.166;2023-04-03T01:57:16;3.90;;;1.67;;
25207;SDS011;13153;52.316;21.166;2023-04-03T01:59:42;7.55;;;2.33;;
25207;SDS011;13153;52.316;21.166;2023-04-03T02:02:07;3.90;;;1.80;;
25207;SDS011;13153;52.316;21.166;2023-04-03T02:04:33;6.60;;;1.90;;
25207;SDS011;13153;52.316;21.166;2023-04-03T02:06:59;3.85;;;1.85;;
25207;SDS011;13153;52.316;21.166;2023-04-03T02:09:25;4.85;;;2.00;;
25207;SDS011;13153;52.316;21.166;2023-04-03T02:11:52;3.30;;;2.00;;
25207;SDS011;13153;52.316;21.166;2023-04-03T02:14:18;5.45;;;1.98;;
25207;SDS011;13153;52.316;21.166;2023-04-03T02:16:44;4.72;;;2.10;;
25207;SDS011;13153;52.316;21.166;2023-04-03T02:19:09;3.47;;;1.88;;
25207;SDS011;13153;52.316;21.166;2023-04-03T02:21:35;6.43;;;1.98;;
25207;SDS011;13153;52.316;21.166;2023-04-03T02:24:01;3.15;;;1.95;;
25207;SDS011;13153;52.316;21.166;2023-04-03T02:26:27;5.75;;;1.90;;
25207;SDS011;13153;52.316;21.166;2023-04-03T02:28:53;8.02;;;2.85;;
25207;SDS011;13153;52.316;21.166;2023-04-03T02:31:18;11.48;;;3.03;;
25207;SDS011;13153;52.316;21.166;2023-04-03T02:33:45;9.40;;;3.65;;
25207;SDS011;13153;52.316;21.166;2023-04-03T02:36:11;7.82;;;3.08;;
25207;SDS011;13153;52.316;21.166;2023-04-03T02:38:37;5.10;;;2.40;;
25207;SDS011;13153;52.316;21.166;2023-04-03T02:41:04;7.90;;;2.63;;
25207;SDS011;13153;52.316;21.166;2023-04-03T02:43:36;6.25;;;1.70;;
25207;SDS011;13153;52.316;21.166;2023-04-03T02:46:02;5.57;;;2.72;;
25207;SDS011;13153;52.316;21.166;2023-04-03T02:48:29;5.05;;;2.33;;
25207;SDS011;13153;52.316;21.166;2023-04-03T02:50:54;4.07;;;2.03;;
25207;SDS011;13153;52.316;21.166;2023-04-03T02:53:20;4.75;;;1.88;;
25207;SDS011;13153;52.316;21.166;2023-04-03T02:55:47;5.00;;;1.98;;
25207;SDS011;13153;52.316;21.166;2023-04-03T02:58:13;3.95;;;1.95;;
25207;SDS011;13153;52.316;21.166;2023-04-03T03:00:39;4.05;;;2.00;;
25207;SDS011;13153;52.316;21.166;2023-04-03T03:03:05;4.22;;;1.85;;
25207;SDS011;13153;52.316;21.166;2023-04-03T03:05:31;5.82;;;2.10;;
25207;SDS011;13153;52.316;21.166;2023-04-03T03:07:57;4.25;;;2.00;;
25207;SDS011;13153;52.316;21.166;2023-04-03T03:10:23;4.25;;;2.10;;
25207;SDS011;13153;52.316;21.166;2023-04-03T03:12:49;6.40;;;2.20;;
25207;SDS011;13153;52.316;21.166;2023-04-03T03:15:15;3.08;;;1.75;;
25207;SDS011;13153;52.316;21.166;2023-04-03T03:17:43;4.90;;;1.98;;
25207;SDS011;13153;52.316;21.166;2023-04-03T03:20:09;4.40;;;1.80;;
25207;SDS011;13153;52.316;21.166;2023-04-03T03:22:36;4.18;;;1.77;;
25207;SDS011;13153;52.316;21.166;2023-04-03T03:25:02;4.07;;;1.95;;
25207;SDS011;13153;52.316;21.166;2023-04-03T03:27:28;6.38;;;2.10;;
25207;SDS011;13153;52.316;21.166;2023-04-03T03:29:54;4.68;;;2.30;;
25207;SDS011;13153;52.316;21.166;2023-04-03T03:32:20;4.85;;;2.13;;
25207;SDS011;13153;52.316;21.166;2023-04-03T03:34:46;5.70;;;2.50;;
25207;SDS011;13153;52.316;21.166;2023-04-03T03:37:11;5.63;;;2.47;;
25207;SDS011;13153;52.316;21.166;2023-04-03T03:39:37;8.02;;;2.55;;
25207;SDS011;13153;52.316;21.166;2023-04-03T03:42:03;6.55;;;2.58;;
25207;SDS011;13153;52.316;21.166;2023-04-03T03:44:29;6.40;;;2.40;;
25207;SDS011;13153;52.316;21.166;2023-04-03T03:46:55;6.50;;;2.25;;
25207;SDS011;13153;52.316;21.166;2023-04-03T03:49:21;4.00;;;2.30;;
25207;SDS011;13153;52.316;21.166;2023-04-03T03:51:47;6.45;;;2.30;;
25207;SDS011;13153;52.316;21.166;2023-04-03T03:54:13;6.32;;;2.30;;
25207;SDS011;13153;52.316;21.166;2023-04-03T03:56:39;5.63;;;2.45;;
25207;SDS011;13153;52.316;21.166;2023-04-03T03:59:05;4.97;;;2.00;;
25207;SDS011;13153;52.316;21.166;2023-04-03T04:01:31;6.38;;;2.28;;
25207;SDS011;13153;52.316;21.166;2023-04-03T04:03:57;5.55;;;1.85;;
25207;SDS011;13153;52.316;21.166;2023-04-03T04:06:23;5.88;;;2.30;;
25207;SDS011;13153;52.316;21.166;2023-04-03T04:08:50;10.27;;;2.20;;
25207;SDS011;13153;52.316;21.166;2023-04-03T04:11:15;4.72;;;2.00;;
25207;SDS011;13153;52.316;21.166;2023-04-03T04:13:41;8.23;;;2.25;;
25207;SDS011;13153;52.316;21.166;2023-04-03T04:16:07;5.07;;;2.03;;
25207;SDS011;13153;52.316;21.166;2023-04-03T04:18:34;3.75;;;2.05;;
25207;SDS011;13153;52.316;21.166;2023-04-03T04:21:00;5.78;;;2.22;;
25207;SDS011;13153;52.316;21.166;2023-04-03T04:23:26;6.00;;;2.05;;
25207;SDS011;13153;52.316;21.166;2023-04-03T04:25:52;4.15;;;2.25;;
25207;SDS011;13153;52.316;21.166;2023-04-03T04:28:18;8.68;;;2.55;;
25207;SDS011;13153;52.316;21.166;2023-04-03T04:30:45;5.90;;;2.63;;
25207;SDS011;13153;52.316;21.166;2023-04-03T04:33:11;4.95;;;2.47;;
25207;SDS011;13153;52.316;21.166;2023-04-03T04:35:38;4.57;;;2.30;;
25207;SDS011;13153;52.316;21.166;2023-04-03T04:38:07;5.07;;;2.20;;
25207;SDS011;13153;52.316;21.166;2023-04-03T04:40:33;10.90;;;2.85;;
25207;SDS011;13153;52.316;21.166;2023-04-03T04:42:59;15.45;;;4.30;;
25207;SDS011;13153;52.316;21.166;2023-04-03T04:45:25;9.65;;;2.72;;
25207;SDS011;13153;52.316;21.166;2023-04-03T04:47:51;7.13;;;2.92;;
25207;SDS011;13153;52.316;21.166;2023-04-03T04:50:18;10.65;;;2.55;;
25207;SDS011;13153;52.316;21.166;2023-04-03T04:52:44;5.82;;;2.08;;
25207;SDS011;13153;52.316;21.166;2023-04-03T04:55:10;4.55;;;1.95;;
25207;SDS011;13153;52.316;21.166;2023-04-03T04:57:36;5.93;;;2.30;;
25207;SDS011;13153;52.316;21.166;2023-04-03T05:00:03;6.30;;;3.03;;
25207;SDS011;13153;52.316;21.166;2023-04-03T05:02:30;5.20;;;2.53;;
25207;SDS011;13153;52.316;21.166;2023-04-03T05:04:56;5.95;;;2.00;;
25207;SDS011;13153;52.316;21.166;2023-04-03T05:07:22;6.35;;;1.92;;
25207;SDS011;13153;52.316;21.166;2023-04-03T05:09:49;9.18;;;2.05;;
25207;SDS011;13153;52.316;21.166;2023-04-03T05:12:15;4.30;;;2.22;;
25207;SDS011;13153;52.316;21.166;2023-04-03T05:14:42;5.50;;;2.30;;
25207;SDS011;13153;52.316;21.166;2023-04-03T05:17:07;5.43;;;2.28;;
25207;SDS011;13153;52.316;21.166;2023-04-03T05:19:33;5.30;;;2.38;;
25207;SDS011;13153;52.316;21.166;2023-04-03T05:21:59;10.38;;;2.33;;
25207;SDS011;13153;52.316;21.166;2023-04-03T05:24:25;6.65;;;2.03;;
25207;SDS011;13153;52.316;21.166;2023-04-03T05:26:51;10.73;;;2.40;;
25207;SDS011;13153;52.316;21.166;2023-04-03T05:29:17;2.88;;;1.80;;
25207;SDS011;13153;52.316;21.166;2023-04-03T05:32:01;7.00;;;2.20;;
25207;SDS011;13153;52.316;21.166;2023-04-03T05:34:27;6.22;;;2.38;;
25207;SDS011;13153;52.316;21.166;2023-04-03T05:36:53;6.25;;;2.20;;
25207;SDS011;13153;52.316;21.166;2023-04-03T05:39:18;10.63;;;4.05;;
25207;SDS011;13153;52.316;21.166;2023-04-03T05:41:44;7.13;;;2.50;;
25207;SDS011;13153;52.316;21.166;2023-04-03T05:44:10;4.60;;;2.33;;
25207;SDS011;13153;52.316;21.166;2023-04-03T05:46:36;6.65;;;2.70;;
25207;SDS011;13153;52.316;21.166;2023-04-03T05:49:02;9.80;;;2.70;;
25207;SDS011;13153;52.316;21.166;2023-04-03T05:51:29;8.13;;;2.40;;
25207;SDS011;13153;52.316;21.166;2023-04-03T05:54:06;9.80;;;2.38;;
25207;SDS011;13153;52.316;21.166;2023-04-03T05:56:46;4.47;;;2.05;;
25207;SDS011;13153;52.316;21.166;2023-04-03T05:59:11;6.80;;;2.17;;
25207;SDS011;13153;52.316;21.166;2023-04-03T06:01:37;6.30;;;2.30;;
25207;SDS011;13153;52.316;21.166;2023-04-03T06:04:03;6.85;;;2.33;;
25207;SDS011;13153;52.316;21.166;2023-04-03T06:09:22;6.18;;;2.55;;
25207;SDS011;13153;52.316;21.166;2023-04-03T06:11:52;10.80;;;2.50;;
25207;SDS011;13153;52.316;21.166;2023-04-03T06:14:18;10.70;;;2.40;;
25207;SDS011;13153;52.316;21.166;2023-04-03T06:16:44;8.15;;;2.38;;
25207;SDS011;13153;52.316;21.166;2023-04-03T06:19:10;5.57;;;2.50;;
25207;SDS011;13153;52.316;21.166;2023-04-03T06:21:37;7.40;;;2.42;;
25207;SDS011;13153;52.316;21.166;2023-04-03T06:24:04;7.40;;;2.30;;
25207;SDS011;13153;52.316;21.166;2023-04-03T06:26:31;6.07;;;2.17;;
25207;SDS011;13153;52.316;21.166;2023-04-03T06:28:58;6.57;;;2.10;;
25207;SDS011;13153;52.316;21.166;2023-04-03T06:31:24;5.32;;;2.22;;
25207;SDS011;13153;52.316;21.166;2023-04-03T06:33:50;5.10;;;2.28;;
25207;SDS011;13153;52.316;21.166;2023-04-03T06:36:17;4.68;;;2.35;;
25207;SDS011;13153;52.316;21.166;2023-04-03T06:38:46;6.00;;;2.50;;
25207;SDS011;13153;52.316;21.166;2023-04-03T06:41:14;9.55;;;2.33;;
25207;SDS011;13153;52.316;21.166;2023-04-03T06:43:41;11.30;;;5.50;;
25207;SDS011;13153;52.316;21.166;2023-04-03T06:46:15;7.00;;;2.88;;
25207;SDS011;13153;52.316;21.166;2023-04-03T06:48:43;9.25;;;2.63;;
25207;SDS011;13153;52.316;21.166;2023-04-03T06:51:19;8.57;;;2.60;;
25207;SDS011;13153;52.316;21.166;2023-04-03T06:53:54;4.20;;;2.20;;
25207;SDS011;13153;52.316;21.166;2023-04-03T06:56:23;10.02;;;2.75;;
25207;SDS011;13153;52.316;21.166;2023-04-03T06:58:51;10.30;;;2.47;;
25207;SDS011;13153;52.316;21.166;2023-04-03T07:01:26;10.13;;;2.50;;
25207;SDS011;13153;52.316;21.166;2023-04-03T07:03:55;5.72;;;2.20;;
25207;SDS011;13153;52.316;21.166;2023-04-03T07:06:21;9.07;;;2.50;;
25207;SDS011;13153;52.316;21.166;2023-04-03T07:08:47;6.50;;;2.30;;
25207;SDS011;13153;52.316;21.166;2023-04-03T07:11:16;8.10;;;2.42;;
25207;SDS011;13153;52.316;21.166;2023-04-03T07:13:42;2.83;;;1.92;;
25207;SDS011;13153;52.316;21.166;2023-04-03T07:16:08;5.85;;;2.50;;
25207;SDS011;13153;52.316;21.166;2023-04-03T07:18:35;6.95;;;2.45;;
25207;SDS011;13153;52.316;21.166;2023-04-03T07:21:01;7.20;;;2.40;;
25207;SDS011;13153;52.316;21.166;2023-04-03T07:23:28;8.35;;;2.90;;
25207;SDS011;13153;52.316;21.166;2023-04-03T07:25:54;5.63;;;2.40;;
25207;SDS011;13153;52.316;21.166;2023-04-03T07:28:21;6.78;;;2.83;;
25207;SDS011;13153;52.316;21.166;2023-04-03T07:30:52;5.18;;;2.75;;
25207;SDS011;13153;52.316;21.166;2023-04-03T07:33:24;5.05;;;2.60;;
25207;SDS011;13153;52.316;21.166;2023-04-03T07:35:51;9.10;;;3.50;;
25207;SDS011;13153;52.316;21.166;2023-04-03T07:38:17;14.32;;;2.72;;
25207;SDS011;13153;52.316;21.166;2023-04-03T07:40:46;5.85;;;2.40;;
25207;SDS011;13153;52.316;21.166;2023-04-03T07:43:15;7.57;;;2.42;;
25207;SDS011;13153;52.316;21.166;2023-04-03T07:45:42;8.32;;;2.28;;
25207;SDS011;13153;52.316;21.166;2023-04-03T07:48:10;4.93;;;2.20;;
25207;SDS011;13153;52.316;21.166;2023-04-03T07:50:36;5.03;;;2.65;;
25207;SDS011;13153;52.316;21.166;2023-04-03T07:53:05;8.60;;;2.42;;
25207;SDS011;13153;52.316;21.166;2023-04-03T07:55:32;8.50;;;2.28;;
25207;SDS011;13153;52.316;21.166;2023-04-03T07:57:59;5.57;;;2.55;;
25207;SDS011;13153;52.316;21.166;2023-04-03T08:00:25;5.00;;;2.10;;
25207;SDS011;13153;52.316;21.166;2023-04-03T08:02:50;3.40;;;1.88;;
25207;SDS011;13153;52.316;21.166;2023-04-03T08:05:19;8.43;;;1.70;;
25207;SDS011;13153;52.316;21.166;2023-04-03T08:07:46;6.25;;;2.00;;
25207;SDS011;13153;52.316;21.166;2023-04-03T08:10:13;7.03;;;2.42;;
25207;SDS011;13153;52.316;21.166;2023-04-03T08:12:40;8.00;;;2.88;;
25207;SDS011;13153;52.316;21.166;2023-04-03T08:15:07;7.80;;;2.10;;
25207;SDS011;13153;52.316;21.166;2023-04-03T08:17:34;3.95;;;1.80;;
25207;SDS011;13153;52.316;21.166;2023-04-03T08:20:00;10.30;;;2.55;;
25207;SDS011;13153;52.316;21.166;2023-04-03T08:22:27;6.78;;;2.38;;
25207;SDS011;13153;52.316;21.166;2023-04-03T08:24:54;9.23;;;2.70;;
25207;SDS011;13153;52.316;21.166;2023-04-03T08:27:20;6.13;;;2.17;;
25207;SDS011;13153;52.316;21.166;2023-04-03T08:29:46;5.57;;;1.83;;
25207;SDS011;13153;52.316;21.166;2023-04-03T08:32:11;6.47;;;2.28;;
25207;SDS011;13153;52.316;21.166;2023-04-03T08:34:44;4.03;;;1.85;;
25207;SDS011;13153;52.316;21.166;2023-04-03T08:37:09;3.90;;;1.90;;
25207;SDS011;13153;52.316;21.166;2023-04-03T08:39:36;2.47;;;1.60;;
25207;SDS011;13153;52.316;21.166;2023-04-03T08:42:03;3.53;;;1.90;;
25207;SDS011;13153;52.316;21.166;2023-04-03T08:44:52;4.35;;;1.60;;
25207;SDS011;13153;52.316;21.166;2023-04-03T08:47:51;6.38;;;2.00;;
25207;SDS011;13153;52.316;21.166;2023-04-03T08:50:34;5.30;;;2.13;;
25207;SDS011;13153;52.316;21.166;2023-04-03T08:53:06;9.90;;;2.05;;
25207;SDS011;13153;52.316;21.166;2023-04-03T08:55:47;3.05;;;1.70;;
25207;SDS011;13153;52.316;21.166;2023-04-03T08:58:21;6.82;;;1.60;;
25207;SDS011;13153;52.316;21.166;2023-04-03T09:01:04;4.57;;;2.00;;
25207;SDS011;13153;52.316;21.166;2023-04-03T09:03:42;3.55;;;1.60;;
25207;SDS011;13153;52.316;21.166;2023-04-03T09:23:17;7.38;;;2.17;;
25207;SDS011;13153;52.316;21.166;2023-04-03T09:26:16;3.50;;;2.15;;
25207;SDS011;13153;52.316;21.166;2023-04-03T09:29:08;8.65;;;2.67;;
25207;SDS011;13153;52.316;21.166;2023-04-03T09:31:46;9.68;;;2.50;;
25207;SDS011;13153;52.316;21.166;2023-04-03T09:34:35;5.80;;;2.13;;
25207;SDS011;13153;52.316;21.166;2023-04-03T09:37:03;5.00;;;2.05;;
25207;SDS011;13153;52.316;21.166;2023-04-03T09:39:49;5.95;;;2.22;;
25207;SDS011;13153;52.316;21.166;2023-04-03T09:44:54;5.07;;;1.88;;
25207;SDS011;13153;52.316;21.166;2023-04-03T09:47:30;3.17;;;1.90;;
25207;SDS011;13153;52.316;21.166;2023-04-03T09:50:35;5.45;;;1.70;;
25207;SDS011;13153;52.316;21.166;2023-04-03T09:52:54;6.15;;;1.70;;
25207;SDS011;13153;52.316;21.166;2023-04-03T09:55:24;13.65;;;2.72;;
25207;SDS011;13153;52.316;21.166;2023-04-03T09:57:54;6.30;;;2.20;;
25207;SDS011;13153;52.316;21.166;2023-04-03T10:00:28;7.03;;;1.70;;
25207;SDS011;13153;52.316;21.166;2023-04-03T10:03:02;6.80;;;1.70;;
25207;SDS011;13153;52.316;21.166;2023-04-03T10:05:37;7.57;;;1.80;;
25207;SDS011;13153;52.316;21.166;2023-04-03T10:08:10;6.10;;;1.85;;
25207;SDS011;13153;52.316;21.166;2023-04-03T10:10:46;5.68;;;1.70;;
25207;SDS011;13153;52.316;21.166;2023-04-03T10:13:59;5.40;;;1.75;;
25207;SDS011;13153;52.316;21.166;2023-04-03T10:16:34;2.88;;;1.60;;
25207;SDS011;13153;52.316;21.166;2023-04-03T10:34:24;7.55;;;2.10;;
25207;SDS011;13153;52.316;21.166;2023-04-03T10:37:24;3.22;;;2.10;;
25207;SDS011;13153;52.316;21.166;2023-04-03T10:46:10;1.80;;;1.27;;
25207;SDS011;13153;52.316;21.166;2023-04-03T10:49:16;3.20;;;1.55;;
25207;SDS011;13153;52.316;21.166;2023-04-03T10:52:02;10.20;;;2.20;;
25207;SDS011;13153;52.316;21.166;2023-04-03T10:54:39;9.02;;;1.80;;
25207;SDS011;13153;52.316;21.166;2023-04-03T10:57:19;4.18;;;1.80;;
25207;SDS011;13153;52.316;21.166;2023-04-03T11:02:55;6.60;;;2.92;;
25207;SDS011;13153;52.316;21.166;2023-04-03T11:05:30;4.43;;;1.50;;
25207;SDS011;13153;52.316;21.166;2023-04-03T11:08:02;6.38;;;1.75;;
25207;SDS011;13153;52.316;21.166;2023-04-03T11:11:04;6.78;;;2.63;;
25207;SDS011;13153;52.316;21.166;2023-04-03T11:13:38;5.00;;;2.33;;
25207;SDS011;13153;52.316;21.166;2023-04-03T11:16:32;6.05;;;1.98;;
25207;SDS011;13153;52.316;21.166;2023-04-03T11:22:03;6.75;;;2.80;;
25207;SDS011;13153;52.316;21.166;2023-04-03T11:24:51;7.93;;;2.65;;
25207;SDS011;13153;52.316;21.166;2023-04-03T11:27:33;14.88;;;2.63;;
25207;SDS011;13153;52.316;21.166;2023-04-03T11:30:14;3.90;;;1.95;;
25207;SDS011;13153;52.316;21.166;2023-04-03T11:33:02;2.95;;;1.60;;
25207;SDS011;13153;52.316;21.166;2023-04-03T11:35:49;5.90;;;1.77;;
25207;SDS011;13153;52.316;21.166;2023-04-03T11:38:31;12.38;;;3.08;;
25207;SDS011;13153;52.316;21.166;2023-04-03T11:41:06;3.07;;;1.70;;
25207;SDS011;13153;52.316;21.166;2023-04-03T11:43:39;3.80;;;1.92;;
25207;SDS011;13153;52.316;21.166;2023-04-03T11:46:21;5.32;;;1.85;;
25207;SDS011;13153;52.316;21.166;2023-04-03T11:48:48;3.22;;;1.60;;
25207;SDS011;13153;52.316;21.166;2023-04-03T11:53:53;6.70;;;1.80;;
25207;SDS011;13153;52.316;21.166;2023-04-03T11:56:39;20.95;;;4.00;;
25207;SDS011;13153;52.316;21.166;2023-04-03T12:01:47;4.13;;;2.28;;
25207;SDS011;13153;52.316;21.166;2023-04-03T12:04:16;5.90;;;2.30;;
25207;SDS011;13153;52.316;21.166;2023-04-03T12:21:21;3.75;;;2.10;;
25207;SDS011;13153;52.316;21.166;2023-04-03T12:26:36;4.28;;;1.98;;
25207;SDS011;13153;52.316;21.166;2023-04-03T12:40:48;7.30;;;1.65;;
25207;SDS011;13153;52.316;21.166;2023-04-03T12:46:43;35.65;;;4.72;;
25207;SDS011;13153;52.316;21.166;2023-04-03T12:49:14;9.45;;;2.08;;
25207;SDS011;13153;52.316;21.166;2023-04-03T12:52:06;18.23;;;3.20;;
25207;SDS011;13153;52.316;21.166;2023-04-03T12:54:56;5.07;;;2.10;;
25207;SDS011;13153;52.316;21.166;2023-04-03T12:57:29;13.77;;;3.00;;
25207;SDS011;13153;52.316;21.166;2023-04-03T12:59:56;10.55;;;2.63;;
25207;SDS011;13153;52.316;21.166;2023-04-03T13:02:29;7.43;;;2.50;;
25207;SDS011;13153;52.316;21.166;2023-04-03T13:04:59;3.83;;;2.00;;
25207;SDS011;13153;52.316;21.166;2023-04-03T13:07:33;47.60;;;6.75;;
25207;SDS011;13153;52.316;21.166;2023-04-03T13:12:33;4.57;;;2.20;;
25207;SDS011;13153;52.316;21.166;2023-04-03T13:15:23;15.13;;;4.28;;
25207;SDS011;13153;52.316;21.166;2023-04-03T13:17:56;6.03;;;2.80;;
25207;SDS011;13153;52.316;21.166;2023-04-03T13:20:32;3.10;;;1.90;;
25207;SDS011;13153;52.316;21.166;2023-04-03T13:23:08;6.85;;;2.17;;
25207;SDS011;13153;52.316;21.166;2023-04-03T13:25:43;12.75;;;3.03;;
25207;SDS011;13153;52.316;21.166;2023-04-03T13:28:15;5.85;;;2.28;;
25207;SDS011;13153;52.316;21.166;2023-04-03T13:30:54;35.33;;;3.97;;
25207;SDS011;13153;52.316;21.166;2023-04-03T13:33:35;10.27;;;2.67;;
25207;SDS011;13153;52.316;21.166;2023-04-03T13:36:22;6.32;;;2.47;;
25207;SDS011;13153;52.316;21.166;2023-04-03T13:41:57;2.78;;;1.52;;
25207;SDS011;13153;52.316;21.166;2023-04-03T13:44:41;7.97;;;1.48;;
25207;SDS011;13153;52.316;21.166;2023-04-03T13:49:36;4.13;;;1.95;;
25207;SDS011;13153;52.316;21.166;2023-04-03T13:55:19;5.95;;;3.22;;
25207;SDS011;13153;52.316;21.166;2023-04-03T13:57:56;10.93;;;2.40;;
25207;SDS011;13153;52.316;21.166;2023-04-03T14:00:30;5.60;;;2.20;;
25207;SDS011;13153;52.316;21.166;2023-04-03T14:06:24;3.40;;;1.80;;
25207;SDS011;13153;52.316;21.166;2023-04-03T14:08:50;2.38;;;1.55;;
25207;SDS011;13153;52.316;21.166;2023-04-03T14:11:21;6.82;;;2.50;;
25207;SDS011;13153;52.316;21.166;2023-04-03T14:13:53;13.98;;;4.30;;
25207;SDS011;13153;52.316;21.166;2023-04-03T14:16:26;15.27;;;6.57;;
25207;SDS011;13153;52.316;21.166;2023-04-03T14:18:55;8.15;;;4.03;;
25207;SDS011;13153;52.316;21.166;2023-04-03T14:21:22;8.63;;;3.72;;
25207;SDS011;13153;52.316;21.166;2023-04-03T14:23:48;12.57;;;4.63;;
25207;SDS011;13153;52.316;21.166;2023-04-03T14:26:19;9.07;;;3.40;;
25207;SDS011;13153;52.316;21.166;2023-04-03T14:28:50;10.65;;;3.58;;
25207;SDS011;13153;52.316;21.166;2023-04-03T14:31:23;8.18;;;2.60;;
25207;SDS011;13153;52.316;21.166;2023-04-03T14:33:51;6.20;;;2.80;;
25207;SDS011;13153;52.316;21.166;2023-04-03T14:36:18;3.83;;;2.42;;
25207;SDS011;13153;52.316;21.166;2023-04-03T14:38:48;7.32;;;3.10;;
25207;SDS011;13153;52.316;21.166;2023-04-03T14:41:16;7.25;;;2.95;;
25207;SDS011;13153;52.316;21.166;2023-04-03T14:43:46;5.82;;;2.60;;
25207;SDS011;13153;52.316;21.166;2023-04-03T14:46:13;9.45;;;3.90;;
25207;SDS011;13153;52.316;21.166;2023-04-03T14:48:41;15.27;;;3.50;;
25207;SDS011;13153;52.316;21.166;2023-04-03T14:51:09;10.43;;;2.92;;
25207;SDS011;13153;52.316;21.166;2023-04-03T14:53:40;10.45;;;2.85;;
25207;SDS011;13153;52.316;21.166;2023-04-03T14:56:16;11.18;;;5.03;;
25207;SDS011;13153;52.316;21.166;2023-04-03T14:58:52;10.93;;;5.22;;
25207;SDS011;13153;52.316;21.166;2023-04-03T15:01:23;7.70;;;3.80;;
25207;SDS011;13153;52.316;21.166;2023-04-03T15:03:50;8.18;;;2.97;;
25207;SDS011;13153;52.316;21.166;2023-04-03T15:06:16;11.23;;;3.47;;
25207;SDS011;13153;52.316;21.166;2023-04-03T15:08:42;3.60;;;2.25;;
25207;SDS011;13153;52.316;21.166;2023-04-03T15:11:11;7.03;;;2.10;;
25207;SDS011;13153;52.316;21.166;2023-04-03T15:13:37;3.28;;;1.90;;
25207;SDS011;13153;52.316;21.166;2023-04-03T15:16:05;6.95;;;2.72;;
25207;SDS011;13153;52.316;21.166;2023-04-03T15:18:41;7.15;;;3.20;;
25207;SDS011;13153;52.316;21.166;2023-04-03T15:21:07;7.60;;;3.20;;
25207;SDS011;13153;52.316;21.166;2023-04-03T15:23:33;10.13;;;3.60;;
25207;SDS011;13153;52.316;21.166;2023-04-03T15:25:58;17.05;;;4.57;;
25207;SDS011;13153;52.316;21.166;2023-04-03T15:28:26;10.55;;;3.50;;
25207;SDS011;13153;52.316;21.166;2023-04-03T15:31:01;14.18;;;3.95;;
25207;SDS011;13153;52.316;21.166;2023-04-03T15:33:29;14.93;;;4.18;;
25207;SDS011;13153;52.316;21.166;2023-04-03T15:35:57;37.17;;;5.20;;
25207;SDS011;13153;52.316;21.166;2023-04-03T15:38:24;6.15;;;2.60;;
25207;SDS011;13153;52.316;21.166;2023-04-03T15:40:50;9.77;;;3.08;;
25207;SDS011;13153;52.316;21.166;2023-04-03T15:43:16;8.65;;;3.17;;
25207;SDS011;13153;52.316;21.166;2023-04-03T15:45:42;20.80;;;3.70;;
25207;SDS011;13153;52.316;21.166;2023-04-03T15:48:09;14.38;;;4.60;;
25207;SDS011;13153;52.316;21.166;2023-04-03T15:50:36;9.27;;;2.80;;
25207;SDS011;13153;52.316;21.166;2023-04-03T15:53:04;8.32;;;3.67;;
25207;SDS011;13153;52.316;21.166;2023-04-03T15:55:31;9.10;;;3.53;;
25207;SDS011;13153;52.316;21.166;2023-04-03T15:58:00;11.57;;;3.88;;
25207;SDS011;13153;52.316;21.166;2023-04-03T16:00:26;13.30;;;4.00;;
25207;SDS011;13153;52.316;21.166;2023-04-03T16:03:00;18.42;;;4.82;;
25207;SDS011;13153;52.316;21.166;2023-04-03T16:05:33;10.07;;;5.13;;
25207;SDS011;13153;52.316;21.166;2023-04-03T16:08:02;12.40;;;5.45;;
25207;SDS011;13153;52.316;21.166;2023-04-03T16:10:29;16.58;;;5.60;;
25207;SDS011;13153;52.316;21.166;2023-04-03T16:12:55;10.82;;;3.92;;
25207;SDS011;13153;52.316;21.166;2023-04-03T16:15:21;9.35;;;3.60;;
25207;SDS011;13153;52.316;21.166;2023-04-03T16:17:49;12.07;;;4.70;;
25207;SDS011;13153;52.316;21.166;2023-04-03T16:20:15;12.23;;;5.32;;
25207;SDS011;13153;52.316;21.166;2023-04-03T16:22:43;16.13;;;5.18;;
25207;SDS011;13153;52.316;21.166;2023-04-03T16:25:10;10.38;;;5.00;;
25207;SDS011;13153;52.316;21.166;2023-04-03T16:27:37;11.85;;;5.07;;
25207;SDS011;13153;52.316;21.166;2023-04-03T16:30:03;10.38;;;5.05;;
25207;SDS011;13153;52.316;21.166;2023-04-03T16:32:31;17.35;;;5.65;;
25207;SDS011;13153;52.316;21.166;2023-04-03T16:34:57;12.93;;;6.38;;
25207;SDS011;13153;52.316;21.166;2023-04-03T16:37:24;12.95;;;5.13;;